Time;durP1;ratioP1;P1;durP2;ratioP2;P2;SDS_P1;SDS_P2;PMS_P1;PMS_P2;Temp;Humidity;BMP_temperature;BMP_pressure;BME280_temperature;BME280_humidity;BME280_pressure;Samples;Min_cycle;Max_cycle;Signal;HPM_P1;HPM_P2
2021/01/25 00:03:39;;;;;;;1.47;1.37;;;;;;;;;;15364279;28;20206;-79
2021/01/25 00:11:06;;;;;;;31.80;28.37;;;;;;;;;;15362578;28;20281;-78
2021/01/25 00:18:34;;;;;;;2.63;1.87;;;;;;;;;;15363662;28;20260;-77
2021/01/25 00:26:03;;;;;;;2.57;2.00;;;;;;;;;;15361845;28;20206;-76
2021/01/25 00:33:30;;;;;;;3.67;1.90;;;;;;;;;;15362638;28;20198;-76
2021/01/25 00:40:59;;;;;;;2.10;1.67;;;;;;;;;;15360117;28;20683;-78
2021/01/25 00:48:27;;;;;;;2.33;1.90;;;;;;;;;;15374449;28;20253;-79
2021/01/25 00:55:54;;;;;;;4.07;2.20;;;;;;;;;;15361744;28;20236;-81
2021/01/25 01:03:21;;;;;;;3.37;1.90;;;;;;;;;;15360338;28;20225;-78
2021/01/25 01:10:49;;;;;;;2.43;1.63;;;;;;;;;;15361260;28;20200;-79
2021/01/25 01:18:16;;;;;;;2.10;1.50;;;;;;;;;;15343994;28;20569;-79
2021/01/25 01:25:46;;;;;;;2.33;1.43;;;4.50;65.70;;;;;;15361277;28;20539;-79
2021/01/25 01:34:01;;;;;;;2.37;1.60;;;;;;;;;;15692169;27;1095324;-80
2021/01/25 01:41:28;;;;;;;2.03;1.60;;;;;;;;;;15665734;28;20553;-79
2021/01/25 01:48:54;;;;;;;1.70;1.10;;;;;;;;;;15585476;28;20292;-80
2021/01/25 01:56:22;;;;;;;3.13;1.57;;;;;;;;;;15583072;28;20244;-80
2021/01/25 02:03:48;;;;;;;2.60;1.50;;;;;;;;;;15601323;28;20303;-79
2021/01/25 02:11:15;;;;;;;2.03;1.50;;;;;;;;;;15583072;28;20227;-80
2021/01/25 02:18:44;;;;;;;1.60;1.40;;;;;;;;;;15581192;28;20223;-80
2021/01/25 02:26:18;;;;;;;1.70;1.40;;;5.50;62.70;;;;;;15600014;28;20223;-80
2021/01/25 02:33:47;;;;;;;2.63;1.40;;;;;;;;;;15599392;28;20561;-80
2021/01/25 02:41:14;;;;;;;4.30;1.70;;;;;;;;;;15581691;28;20176;-81
2021/01/25 02:48:41;;;;;;;2.57;1.60;;;;;;;;;;15556372;28;20262;-80
2021/01/25 02:56:10;;;;;;;2.57;1.80;;;;;;;;;;15524505;28;20265;-82
2021/01/25 03:03:39;;;;;;;2.57;1.63;;;;;;;;;;15539660;28;20192;-79
2021/01/25 03:11:06;;;;;;;2.57;1.60;;;;;;;;;;15537309;28;20656;-80
2021/01/25 03:18:34;;;;;;;2.20;1.80;;;;;;;;;;15536728;28;20242;-80
2021/01/25 03:26:00;;;;;;;2.30;2.10;;;;;;;;;;15537813;28;20204;-79
2021/01/25 03:33:27;;;;;;;2.97;2.00;;;;;;;;;;15554871;28;20693;-80
2021/01/25 03:40:55;;;;;;;2.83;1.93;;;;;;;;;;15535864;28;20200;-81
2021/01/25 03:48:22;;;;;;;2.27;1.90;;;;;;;;;;15553684;28;20231;-80
2021/01/25 03:55:48;;;;;;;3.17;1.90;;;;;;;;;;15535472;28;20195;-83
2021/01/25 04:03:16;;;;;;;3.50;2.00;;;;;;;;;;15553944;28;20253;-81
2021/01/25 04:10:44;;;;;;;3.13;2.07;;;;;;;;;;15551060;28;20277;-82
2021/01/25 04:18:10;;;;;;;2.53;1.93;;;;;;;;;;15552908;28;20211;-82
2021/01/25 04:25:38;;;;;;;3.37;2.40;;;;;;;;;;15517625;28;20662;-82
2021/01/25 04:33:05;;;;;;;3.40;2.40;;;;;;;;;;15530574;28;20533;-82
2021/01/25 04:40:32;;;;;;;3.33;2.17;;;;;;;;;;15528820;28;20219;-82
2021/01/25 04:48:02;;;;;;;2.60;2.40;;;5.20;64.00;;;;;;15527517;28;20265;-81
2021/01/25 04:55:29;;;;;;;3.20;2.40;;;;;;;;;;15547394;28;20187;-82
2021/01/25 05:02:56;;;;;;;3.93;2.80;;;;;;;;;;15546874;28;20191;-82
2021/01/25 05:10:24;;;;;;;4.87;3.27;;;;;;;;;;15545480;28;20220;-82
2021/01/25 05:17:51;;;;;;;3.20;2.40;;;;;;;;;;15510182;28;20340;-83
2021/01/25 05:25:26;;;;;;;3.97;2.30;;;;;;;;;;15545309;28;20599;-82
2021/01/25 05:32:56;;;;;;;2.90;2.60;;;;;;;;;;15543141;28;20617;-82
2021/01/25 05:40:24;;;;;;;4.07;2.47;;;;;;;;;;15526698;28;20423;-84
2021/01/25 05:47:55;;;;;;;3.30;2.80;;;;;;;;;;15525354;28;20242;-81
2021/01/25 05:55:24;;;;;;;5.00;2.93;;;;;;;;;;15526157;28;20180;-82
2021/01/25 06:02:51;;;;;;;3.97;3.20;;;;;;;;;;15507296;28;20211;-82
2021/01/25 06:10:22;;;;;;;4.87;3.90;;;;;;;;;;15526249;28;20215;-82
2021/01/25 06:17:50;;;;;;;4.80;3.63;;;;;;;;;;15531743;28;20211;-83
2021/01/25 06:25:17;;;;;;;4.20;3.80;;;;;;;;;;15554207;28;20634;-82
2021/01/25 06:32:46;;;;;;;3.70;3.30;;;5.10;66.30;;;;;;15535396;28;20262;-82
2021/01/25 06:40:14;;;;;;;3.90;3.50;;;;;;;;;;15553550;28;20550;-82
2021/01/25 06:47:40;;;;;;;3.50;3.20;;;;;;;;;;15540781;28;20238;-84
2021/01/25 06:55:12;;;;;;;3.90;3.60;;;;;;;;;;15532419;28;20184;-81
2021/01/25 07:02:55;;;;;;;4.00;3.60;;;5.70;67.10;;;;;;15532722;28;20191;-83
2021/01/25 07:10:26;;;;;;;4.37;3.90;;;5.30;66.60;;;;;;15535007;28;20238;-82
2021/01/25 07:17:54;;;;;;;4.13;3.50;;;;;;;;;;15550522;28;20269;-82
2021/01/25 07:25:24;;;;;;;4.73;3.83;;;;;;;;;;15551987;28;20188;-83
2021/01/25 07:32:52;;;;;;;4.10;3.60;;;;;;;;;;15484771;28;20235;-82
2021/01/25 07:40:22;;;;;;;4.70;3.53;;;;;;;;;;15487039;28;20252;-80
2021/01/25 07:47:51;;;;;;;5.17;3.73;;;;;;;;;;15451597;28;20239;-79
2021/01/25 07:55:18;;;;;;;5.63;4.10;;;;;;;;;;15485372;28;20253;-80
2021/01/25 08:02:47;;;;;;;4.23;3.40;;;;;;;;;;15484786;28;20232;-80
2021/01/25 08:10:18;;;;;;;4.53;4.13;;;;;;;;;;15482781;28;20655;-80
2021/01/25 08:17:51;;;;;;;4.33;3.93;;;;;;;;;;15471683;28;20231;-81
2021/01/25 08:25:19;;;;;;;3.87;3.50;;;;;;;;;;15485391;28;20271;-80
2021/01/25 08:32:51;;;;;;;6.07;4.00;;;;;;;;;;15482375;28;20262;-82
2021/01/25 08:40:22;;;;;;;5.00;4.50;;;;;;;;;;15484704;28;20204;-85
2021/01/25 08:48:02;;;;;;;7.00;4.47;;;;;;;;;;15482688;28;20239;-82
2021/01/25 08:55:35;;;;;;;5.67;4.40;;;;;;;;;;15479467;28;20213;-81
2021/01/25 09:03:05;;;;;;;4.47;4.07;;;;;;;;;;15483831;28;20189;-84
2021/01/25 09:10:33;;;;;;;7.37;4.27;;;;;;;;;;15467153;28;20265;-85
2021/01/25 09:18:00;;;;;;;6.90;4.83;;;;;;;;;;15463775;28;20236;-85
2021/01/25 09:25:28;;;;;;;4.80;4.27;;;;;;;;;;15482790;28;20218;-85
2021/01/25 09:32:56;;;;;;;3.80;3.40;;;;;;;;;;15534003;28;20319;-84
2021/01/25 09:40:26;;;;;;;7.73;4.00;;;;;;;;;;15525234;28;20238;-84
2021/01/25 09:47:54;;;;;;;6.23;3.53;;;;;;;;;;15525434;28;20234;-84
2021/01/25 09:55:21;;;;;;;6.17;3.70;;;;;;;;;;15553067;28;20728;-83
2021/01/25 10:02:49;;;;;;;6.83;3.60;;;;;;;;;;15536357;28;20211;-85
2021/01/25 10:10:19;;;;;;;4.20;3.70;;;;;;;;;;15535558;28;20706;-85
2021/01/25 10:17:46;;;;;;;4.93;4.10;;;;;;;;;;15530850;28;20302;-89
2021/01/25 10:25:16;;;;;;;5.30;3.90;;;;;;;;;;15548797;28;20609;-87
2021/01/25 10:32:49;;;;;;;5.50;4.27;;;;;;;;;;15554747;28;20599;-89
2021/01/25 10:40:35;;;;;;;19.40;13.67;;;;;;;;;;15556194;28;20208;-83
2021/01/25 10:48:11;;;;;;;9.07;4.60;;;;;;;;;;15554561;28;20248;-75
2021/01/25 10:55:44;;;;;;;4.90;4.40;;;8.20;61.90;;;;;;15534704;28;20540;-79
2021/01/25 11:03:19;;;;;;;6.77;5.17;;;;;;;;;;15534815;28;20184;-81
2021/01/25 11:10:48;;;;;;;5.57;4.50;;;;;;;;;;15517325;28;21160;-80
2021/01/25 11:18:21;;;;;;;7.90;5.33;;;;;;;;;;15530301;28;20216;-81
2021/01/25 11:25:48;;;;;;;6.87;5.10;;;;;;;;;;15533414;28;20176;-82
2021/01/25 11:33:15;;;;;;;5.00;4.50;;;;;;;;;;15533816;28;20617;-79
2021/01/25 11:40:43;;;;;;;8.23;5.10;;;;;;;;;;15533199;28;20607;-81
2021/01/25 11:48:09;;;;;;;8.90;5.63;;;;;;;;;;15534221;28;20224;-85
2021/01/25 11:55:37;;;;;;;5.47;4.73;;;;;;;;;;15534334;28;20500;-88
2021/01/25 12:03:06;;;;;;;9.07;4.87;;;;;;;;;;15551519;28;20317;-87
2021/01/25 12:10:33;;;;;;;4.60;4.20;;;;;;;;;;15533519;28;20272;-85
2021/01/25 12:17:59;;;;;;;5.40;4.30;;;;;;;;;;15553296;28;20257;-85
2021/01/25 12:25:28;;;;;;;7.03;5.20;;;;;;;;;;15533163;28;20196;-87
2021/01/25 12:32:55;;;;;;;5.57;4.67;;;;;;;;;;15531682;28;20288;-85
2021/01/25 12:40:24;;;;;;;6.50;4.83;;;;;;;;;;15549173;28;20188;-86
2021/01/25 12:47:53;;;;;;;8.73;5.17;;;;;;;;;;15519187;28;20230;-84
2021/01/25 12:55:22;;;;;;;5.37;4.87;;;;;;;;;;15515364;28;20223;-84
2021/01/25 13:02:51;;;;;;;5.83;4.30;;;;;;;;;;15549216;28;20192;-83
2021/01/25 13:10:21;;;;;;;8.73;4.80;;;;;;;;;;15546983;28;20229;-83
2021/01/25 13:17:50;;;;;;;5.20;3.90;;;;;;;;;;15547131;28;20207;-81
2021/01/25 13:25:17;;;;;;;4.67;4.20;;;;;;;;;;15528575;28;20211;-83
2021/01/25 13:32:45;;;;;;;4.73;4.23;;;;;;;;;;15484098;28;20582;-80
2021/01/25 13:40:13;;;;;;;7.57;4.53;;;;;;;;;;15488728;28;20252;-80
2021/01/25 13:47:41;;;;;;;4.87;4.23;;;;;;;;;;15494515;28;20217;-83
2021/01/25 13:55:09;;;;;;;4.97;4.47;;;;;;;;;;15488119;28;20219;-83
2021/01/25 14:02:37;;;;;;;4.83;4.43;;;;;;;;;;15489197;28;20620;-87
2021/01/25 14:10:05;;;;;;;4.67;4.27;;;;;;;;;;15467692;28;20216;-83
2021/01/25 14:17:35;;;;;;;5.90;4.67;;;;;;;;;;15483314;28;20815;-83
2021/01/25 14:25:02;;;;;;;4.60;4.10;;;;;;;;;;15483277;28;20181;-83
2021/01/25 14:32:31;;;;;;;6.67;4.93;;;;;;;;;;15526550;28;20232;-84
2021/01/25 14:39:59;;;;;;;6.20;4.90;;;;;;;;;;15535719;28;20217;-82
2021/01/25 14:47:27;;;;;;;5.30;4.80;;;;;;;;;;15536468;28;20248;-82
2021/01/25 14:54:57;;;;;;;5.97;4.70;;;;;;;;;;15532756;28;20514;-83
2021/01/25 15:02:25;;;;;;;5.83;5.03;;;;;;;;;;15550239;28;20184;-79
2021/01/25 15:09:53;;;;;;;5.80;4.93;;;;;;;;;;15534972;28;20208;-82
2021/01/25 15:17:23;;;;;;;5.27;4.77;;;;;;;;;;15534911;28;20276;-81
2021/01/25 15:24:52;;;;;;;5.80;5.20;;;;;;;;;;15533976;28;20210;-80
2021/01/25 15:32:20;;;;;;;6.03;4.80;;;;;;;;;;15529931;28;20227;-80
2021/01/25 15:39:49;;;;;;;6.07;4.93;;;;;;;;;;15549503;28;20284;-79
2021/01/25 15:47:20;;;;;;;5.17;4.47;;;5.90;58.40;;;;;;15530761;28;20250;-77
2021/01/25 15:54:52;;;;;;;9.57;6.40;;;;;;;;;;15531224;28;20208;-80
2021/01/25 16:02:20;;;;;;;7.83;6.30;;;;;;;;;;15513005;28;20218;-80
2021/01/25 16:09:49;;;;;;;8.37;7.40;;;;;;;;;;15548866;28;20243;-79
2021/01/25 16:17:31;;;;;;;10.30;7.67;;;;;;;;;;15529776;28;20286;-80
2021/01/25 16:25:01;;;;;;;7.97;7.17;;;;;;;;;;15529972;28;20180;-78
2021/01/25 16:32:28;;;;;;;9.80;8.90;;;;;;;;;;15549341;28;20296;-79
2021/01/25 16:39:57;;;;;;;13.20;8.80;;;;;;;;;;15528725;28;20196;-81
2021/01/25 16:47:25;;;;;;;9.40;8.50;;;;;;;;;;15528066;28;20579;-79
2021/01/25 16:54:56;;;;;;;10.50;9.30;;;;;;;;;;15547076;28;20269;-80
2021/01/25 17:02:24;;;;;;;10.90;9.23;;;;;;;;;;15546703;28;20621;-81
2021/01/25 17:09:52;;;;;;;12.27;9.47;;;;;;;;;;15528815;28;20234;-81
2021/01/25 17:17:19;;;;;;;12.03;10.40;;;;;;;;;;15512432;28;20292;-79
2021/01/25 17:24:48;;;;;;;11.30;10.10;;;;;;;;;;15547083;28;20678;-80
2021/01/25 17:32:15;;;;;;;11.37;10.20;;;;;;;;;;15526866;28;20705;-80
2021/01/25 17:39:46;;;;;;;14.83;10.33;;;;;;;;;;15544960;28;20185;-79
2021/01/25 17:47:21;;;;;;;12.07;10.87;;;;;;;;;;15510201;28;20229;-79
2021/01/25 17:54:49;;;;;;;12.17;10.97;;;;;;;;;;15526404;28;20211;-80
2021/01/25 18:02:17;;;;;;;13.60;10.90;;;;;;;;;;15525697;28;20208;-87
2021/01/25 18:09:44;;;;;;;12.23;10.93;;;;;;;;;;15553193;28;20259;-83
2021/01/25 18:17:17;;;;;;;13.43;11.70;;;;;;;;;;15521389;28;20238;-84
2021/01/25 18:24:44;;;;;;;16.13;11.33;;;;;;;;;;15555461;28;20187;-78
2021/01/25 18:32:11;;;;;;;11.83;10.63;;;;;;;;;;15520290;28;20232;-78
2021/01/25 18:39:42;;;;;;;12.90;10.97;;;;;;;;;;15554351;28;20545;-77
2021/01/25 18:47:10;;;;;;;12.77;11.27;;;;;;;;;;15553466;28;20264;-77
2021/01/25 18:54:38;;;;;;;13.23;10.97;;;;;;;;;;15554860;28;20207;-78
2021/01/25 19:02:05;;;;;;;12.33;9.73;;;;;;;;;;15534583;28;20308;-77
2021/01/25 19:09:35;;;;;;;11.27;10.00;;;;;;;;;;15547187;28;20215;-88
2021/01/25 19:17:02;;;;;;;12.17;10.00;;;;;;;;;;15567226;28;20616;-87
2021/01/25 19:24:30;;;;;;;13.23;10.40;;;;;;;;;;15551917;28;20233;-87
2021/01/25 19:31:57;;;;;;;11.17;10.07;;;;;;;;;;15552891;28;20709;-87
2021/01/25 19:39:26;;;;;;;11.50;10.30;;;;;;;;;;15537005;28;20172;-86
2021/01/25 19:46:54;;;;;;;12.50;10.53;;;;;;;;;;15538473;28;20215;-86
2021/01/25 19:54:21;;;;;;;11.70;10.50;;;;;;;;;;15546481;28;20212;-86
2021/01/25 20:01:49;;;;;;;11.23;9.97;;;;;;;;;;15546743;28;20268;-85
2021/01/25 20:09:18;;;;;;;14.00;10.00;;;;;;;;;;15585558;28;20223;-87
2021/01/25 20:16:47;;;;;;;11.07;9.70;;;;;;;;;;15536415;28;20243;-85
2021/01/25 20:24:15;;;;;;;10.30;9.17;;;;;;;;;;15518155;28;20207;-85
2021/01/25 20:31:45;;;;;;;11.13;9.97;;;;;;;;;;15535293;28;20299;-85
2021/01/25 20:39:13;;;;;;;11.33;8.97;;;;;;;;;;15535374;28;20226;-85
2021/01/25 20:46:41;;;;;;;11.70;9.73;;;;;;;;;;15554492;28;20212;-84
2021/01/25 20:54:13;;;;;;;10.10;9.10;;;;;;;;;;15548864;28;20231;-86
2021/01/25 21:01:41;;;;;;;10.53;9.43;;;;;;;;;;15536114;28;20207;-91
2021/01/25 21:09:09;;;;;;;13.53;10.50;;;;;;;;;;15517832;28;20223;-82
2021/01/25 21:16:38;;;;;;;11.67;10.00;;;;;;;;;;15546450;28;20211;-83
2021/01/25 21:24:06;;;;;;;11.17;10.07;;;;;;;;;;15527640;28;20211;-75
2021/01/25 21:31:35;;;;;;;10.33;9.30;;;;;;;;;;15527312;28;20250;-80
2021/01/25 21:39:03;;;;;;;12.10;10.07;;;;;;;;;;15528390;28;20219;-84
2021/01/25 21:46:32;;;;;;;10.70;9.53;;;;;;;;;;15514985;28;20222;-80
2021/01/25 21:54:02;;;;;;;11.43;10.13;;;;;;;;;;15558244;28;20497;-81
2021/01/25 22:01:30;;;;;;;12.33;10.60;;;;;;;;;;15541329;28;20192;-81
2021/01/25 22:08:57;;;;;;;54.53;43.33;;;;;;;;;;15539633;28;20216;-78
2021/01/25 22:16:26;;;;;;;11.23;10.00;;;;;;;;;;15537669;28;20222;-79
2021/01/25 22:23:55;;;;;;;9.97;8.97;;;6.50;72.40;;;;;;15537966;28;20184;-78
2021/01/25 22:31:23;;;;;;;11.07;9.80;;;;;;;;;;15555725;28;20236;-79
2021/01/25 22:39:05;;;;;;;11.00;9.50;;;;;;;;;;15536493;28;20658;-77
2021/01/25 22:46:32;;;;;;;10.10;8.73;;;;;;;;;;15555705;28;20684;-76
2021/01/25 22:54:03;;;;;;;9.67;8.57;;;;;;;;;;15549655;28;20274;-82
2021/01/25 23:01:31;;;;;;;8.60;7.60;;;;;;;;;;15547839;28;20677;-83
2021/01/25 23:09:03;;;;;;;7.73;6.70;;;;;;;;;;15536433;28;20252;-84
2021/01/25 23:16:30;;;;;;;9.50;8.20;;;;;;;;;;15535466;28;20558;-81
2021/01/25 23:23:57;;;;;;;9.73;7.97;;;;;;;;;;15554078;28;20202;-82
2021/01/25 23:31:26;;;;;;;9.50;8.17;;;;;;;;;;15534325;28;20712;-82
2021/01/25 23:38:53;;;;;;;8.47;7.57;;;;;;;;;;15533244;28;20567;-82
2021/01/25 23:46:21;;;;;;;9.67;7.13;;;6.40;66.60;;;;;;15552045;28;20273;-82
2021/01/25 23:53:50;;;;;;;7.33;6.50;;;;;;;;;;15552291;28;20204;-82
